sensor_id;sensor_type;location;lat;lon;timestamp;P1;durP1;ratioP1;P2;durP2;ratioP2
7957;SDS011;4024;52.172;5.378;2022-08-14T00:00:59;7.27;;;5.33;;
7957;SDS011;4024;52.172;5.378;2022-08-14T00:03:26;8.37;;;5.90;;
7957;SDS011;4024;52.172;5.378;2022-08-14T00:05:53;6.23;;;5.63;;
7957;SDS011;4024;52.172;5.378;2022-08-14T00:08:20;8.77;;;6.17;;
7957;SDS011;4024;52.172;5.378;2022-08-14T00:10:46;6.47;;;5.87;;
7957;SDS011;4024;52.172;5.378;2022-08-14T00:13:14;6.90;;;6.27;;
7957;SDS011;4024;52.172;5.378;2022-08-14T00:15:42;6.37;;;5.77;;
7957;SDS011;4024;52.172;5.378;2022-08-14T00:18:11;6.00;;;5.50;;
7957;SDS011;4024;52.172;5.378;2022-08-14T00:20:39;6.53;;;5.93;;
7957;SDS011;4024;52.172;5.378;2022-08-14T00:23:06;6.50;;;5.80;;
7957;SDS011;4024;52.172;5.378;2022-08-14T00:25:37;7.00;;;6.40;;
7957;SDS011;4024;52.172;5.378;2022-08-14T00:28:03;6.17;;;5.60;;
7957;SDS011;4024;52.172;5.378;2022-08-14T00:30:31;13.23;;;5.93;;
7957;SDS011;4024;52.172;5.378;2022-08-14T00:32:57;6.10;;;5.60;;
7957;SDS011;4024;52.172;5.378;2022-08-14T00:35:23;7.53;;;5.87;;
7957;SDS011;4024;52.172;5.378;2022-08-14T00:37:48;7.53;;;5.60;;
7957;SDS011;4024;52.172;5.378;2022-08-14T00:40:15;8.23;;;6.03;;
7957;SDS011;4024;52.172;5.378;2022-08-14T00:42:43;6.97;;;6.33;;
7957;SDS011;4024;52.172;5.378;2022-08-14T00:45:11;7.07;;;6.37;;
7957;SDS011;4024;52.172;5.378;2022-08-14T00:47:40;6.90;;;6.20;;
7957;SDS011;4024;52.172;5.378;2022-08-14T00:50:08;9.07;;;6.10;;
7957;SDS011;4024;52.172;5.378;2022-08-14T00:52:36;7.17;;;6.53;;
7957;SDS011;4024;52.172;5.378;2022-08-14T00:55:04;8.53;;;6.00;;
7957;SDS011;4024;52.172;5.378;2022-08-14T00:57:32;6.90;;;6.20;;
7957;SDS011;4024;52.172;5.378;2022-08-14T00:59:59;6.97;;;6.37;;
7957;SDS011;4024;52.172;5.378;2022-08-14T01:02:25;6.87;;;6.23;;
7957;SDS011;4024;52.172;5.378;2022-08-14T01:04:52;7.77;;;6.47;;
7957;SDS011;4024;52.172;5.378;2022-08-14T01:07:22;6.63;;;6.03;;
7957;SDS011;4024;52.172;5.378;2022-08-14T01:09:49;6.50;;;6.00;;
7957;SDS011;4024;52.172;5.378;2022-08-14T01:12:18;8.57;;;6.83;;
7957;SDS011;4024;52.172;5.378;2022-08-14T01:14:45;7.07;;;6.13;;
7957;SDS011;4024;52.172;5.378;2022-08-14T01:17:11;8.93;;;7.00;;
7957;SDS011;4024;52.172;5.378;2022-08-14T01:19:37;7.33;;;6.63;;
7957;SDS011;4024;52.172;5.378;2022-08-14T01:22:21;7.07;;;6.33;;
7957;SDS011;4024;52.172;5.378;2022-08-14T01:24:47;7.40;;;6.70;;
7957;SDS011;4024;52.172;5.378;2022-08-14T01:27:17;9.40;;;7.07;;
7957;SDS011;4024;52.172;5.378;2022-08-14T01:29:45;8.70;;;6.37;;
7957;SDS011;4024;52.172;5.378;2022-08-14T01:32:11;7.93;;;6.40;;
7957;SDS011;4024;52.172;5.378;2022-08-14T01:34:37;6.83;;;6.23;;
7957;SDS011;4024;52.172;5.378;2022-08-14T01:37:03;8.27;;;7.47;;
7957;SDS011;4024;52.172;5.378;2022-08-14T01:39:29;10.23;;;6.87;;
7957;SDS011;4024;52.172;5.378;2022-08-14T01:41:55;7.13;;;6.10;;
7957;SDS011;4024;52.172;5.378;2022-08-14T01:44:25;7.67;;;6.87;;
7957;SDS011;4024;52.172;5.378;2022-08-14T01:46:57;7.33;;;6.63;;
7957;SDS011;4024;52.172;5.378;2022-08-14T01:49:23;8.70;;;6.53;;
7957;SDS011;4024;52.172;5.378;2022-08-14T01:51:50;7.23;;;6.53;;
7957;SDS011;4024;52.172;5.378;2022-08-14T01:54:23;7.47;;;6.77;;
7957;SDS011;4024;52.172;5.378;2022-08-14T01:56:50;7.30;;;6.70;;
7957;SDS011;4024;52.172;5.378;2022-08-14T01:59:28;7.70;;;6.90;;
7957;SDS011;4024;52.172;5.378;2022-08-14T02:02:02;7.57;;;6.67;;
7957;SDS011;4024;52.172;5.378;2022-08-14T02:04:36;7.57;;;6.83;;
7957;SDS011;4024;52.172;5.378;2022-08-14T02:07:03;7.23;;;6.53;;
7957;SDS011;4024;52.172;5.378;2022-08-14T02:09:30;10.10;;;7.20;;
7957;SDS011;4024;52.172;5.378;2022-08-14T02:12:02;8.90;;;7.80;;
7957;SDS011;4024;52.172;5.378;2022-08-14T02:14:29;7.87;;;7.07;;
7957;SDS011;4024;52.172;5.378;2022-08-14T02:16:55;7.60;;;6.90;;
7957;SDS011;4024;52.172;5.378;2022-08-14T02:19:22;10.20;;;7.13;;
7957;SDS011;4024;52.172;5.378;2022-08-14T02:21:51;8.43;;;7.23;;
7957;SDS011;4024;52.172;5.378;2022-08-14T02:24:22;7.97;;;7.17;;
7957;SDS011;4024;52.172;5.378;2022-08-14T02:26:49;7.33;;;6.63;;
7957;SDS011;4024;52.172;5.378;2022-08-14T02:29:19;8.30;;;7.50;;
7957;SDS011;4024;52.172;5.378;2022-08-14T02:31:47;8.33;;;7.63;;
7957;SDS011;4024;52.172;5.378;2022-08-14T02:34:30;9.73;;;7.33;;
7957;SDS011;4024;52.172;5.378;2022-08-14T02:37:03;9.20;;;7.90;;
7957;SDS011;4024;52.172;5.378;2022-08-14T02:39:31;8.07;;;7.27;;
7957;SDS011;4024;52.172;5.378;2022-08-14T02:42:02;8.07;;;7.23;;
7957;SDS011;4024;52.172;5.378;2022-08-14T02:44:28;8.20;;;7.50;;
7957;SDS011;4024;52.172;5.378;2022-08-14T02:46:54;11.70;;;8.30;;
7957;SDS011;4024;52.172;5.378;2022-08-14T02:49:22;12.03;;;7.90;;
7957;SDS011;4024;52.172;5.378;2022-08-14T02:51:51;8.33;;;7.37;;
7957;SDS011;4024;52.172;5.378;2022-08-14T02:54:18;7.53;;;6.83;;
7957;SDS011;4024;52.172;5.378;2022-08-14T02:56:47;8.60;;;7.80;;
7957;SDS011;4024;52.172;5.378;2022-08-14T02:59:14;8.17;;;7.17;;
7957;SDS011;4024;52.172;5.378;2022-08-14T03:01:41;8.43;;;7.63;;
7957;SDS011;4024;52.172;5.378;2022-08-14T03:04:07;8.80;;;7.90;;
7957;SDS011;4024;52.172;5.378;2022-08-14T03:06:35;7.63;;;6.90;;
7957;SDS011;4024;52.172;5.378;2022-08-14T03:09:13;8.53;;;7.63;;
7957;SDS011;4024;52.172;5.378;2022-08-14T03:11:39;8.07;;;7.27;;
7957;SDS011;4024;52.172;5.378;2022-08-14T03:14:08;7.70;;;7.00;;
7957;SDS011;4024;52.172;5.378;2022-08-14T03:16:36;10.50;;;7.30;;
7957;SDS011;4024;52.172;5.378;2022-08-14T03:19:04;8.00;;;7.20;;
7957;SDS011;4024;52.172;5.378;2022-08-14T03:21:31;9.17;;;8.27;;
7957;SDS011;4024;52.172;5.378;2022-08-14T03:23:57;8.13;;;7.33;;
7957;SDS011;4024;52.172;5.378;2022-08-14T03:26:33;8.87;;;7.67;;
7957;SDS011;4024;52.172;5.378;2022-08-14T03:29:02;8.70;;;7.90;;
7957;SDS011;4024;52.172;5.378;2022-08-14T03:31:28;7.80;;;7.10;;
7957;SDS011;4024;52.172;5.378;2022-08-14T03:33:54;9.77;;;8.17;;
7957;SDS011;4024;52.172;5.378;2022-08-14T03:36:20;9.03;;;8.13;;
7957;SDS011;4024;52.172;5.378;2022-08-14T03:38:47;10.73;;;8.03;;
7957;SDS011;4024;52.172;5.378;2022-08-14T03:41:17;8.80;;;8.00;;
7957;SDS011;4024;52.172;5.378;2022-08-14T03:43:52;8.97;;;8.17;;
7957;SDS011;4024;52.172;5.378;2022-08-14T03:46:27;9.77;;;8.67;;
7957;SDS011;4024;52.172;5.378;2022-08-14T03:48:55;8.87;;;7.97;;
7957;SDS011;4024;52.172;5.378;2022-08-14T03:51:21;9.57;;;8.53;;
7957;SDS011;4024;52.172;5.378;2022-08-14T03:53:59;9.27;;;8.43;;
7957;SDS011;4024;52.172;5.378;2022-08-14T03:56:27;10.40;;;8.60;;
7957;SDS011;4024;52.172;5.378;2022-08-14T03:58:56;10.57;;;8.53;;
7957;SDS011;4024;52.172;5.378;2022-08-14T04:01:23;9.40;;;8.40;;
7957;SDS011;4024;52.172;5.378;2022-08-14T04:03:50;9.23;;;8.03;;
7957;SDS011;4024;52.172;5.378;2022-08-14T04:06:20;10.30;;;8.90;;
7957;SDS011;4024;52.172;5.378;2022-08-14T04:08:46;9.77;;;8.47;;
7957;SDS011;4024;52.172;5.378;2022-08-14T04:11:17;8.97;;;8.03;;
7957;SDS011;4024;52.172;5.378;2022-08-14T04:13:46;8.60;;;7.70;;
7957;SDS011;4024;52.172;5.378;2022-08-14T04:16:16;9.63;;;8.43;;
7957;SDS011;4024;52.172;5.378;2022-08-14T04:18:45;9.20;;;8.30;;
7957;SDS011;4024;52.172;5.378;2022-08-14T04:21:13;9.50;;;8.60;;
7957;SDS011;4024;52.172;5.378;2022-08-14T04:23:54;9.90;;;8.90;;
7957;SDS011;4024;52.172;5.378;2022-08-14T04:26:22;9.53;;;8.63;;
7957;SDS011;4024;52.172;5.378;2022-08-14T04:28:49;10.13;;;9.00;;
7957;SDS011;4024;52.172;5.378;2022-08-14T04:31:17;9.23;;;8.43;;
7957;SDS011;4024;52.172;5.378;2022-08-14T04:33:47;10.33;;;8.80;;
7957;SDS011;4024;52.172;5.378;2022-08-14T04:36:13;10.57;;;9.47;;
7957;SDS011;4024;52.172;5.378;2022-08-14T04:38:39;9.90;;;9.00;;
7957;SDS011;4024;52.172;5.378;2022-08-14T04:41:24;10.40;;;8.50;;
7957;SDS011;4024;52.172;5.378;2022-08-14T04:44:08;9.93;;;8.90;;
7957;SDS011;4024;52.172;5.378;2022-08-14T04:46:34;9.93;;;8.93;;
7957;SDS011;4024;52.172;5.378;2022-08-14T04:49:00;9.30;;;8.40;;
7957;SDS011;4024;52.172;5.378;2022-08-14T04:51:29;9.13;;;8.30;;
7957;SDS011;4024;52.172;5.378;2022-08-14T04:53:57;9.73;;;8.73;;
7957;SDS011;4024;52.172;5.378;2022-08-14T04:56:24;10.83;;;9.83;;
7957;SDS011;4024;52.172;5.378;2022-08-14T04:58:51;10.93;;;9.77;;
7957;SDS011;4024;52.172;5.378;2022-08-14T05:01:24;9.83;;;8.83;;
7957;SDS011;4024;52.172;5.378;2022-08-14T05:03:50;12.43;;;9.60;;
7957;SDS011;4024;52.172;5.378;2022-08-14T05:06:17;10.80;;;9.70;;
7957;SDS011;4024;52.172;5.378;2022-08-14T05:08:43;10.87;;;9.80;;
7957;SDS011;4024;52.172;5.378;2022-08-14T05:11:11;12.20;;;9.20;;
7957;SDS011;4024;52.172;5.378;2022-08-14T05:14:02;12.17;;;9.97;;
7957;SDS011;4024;52.172;5.378;2022-08-14T05:16:28;11.83;;;10.60;;
7957;SDS011;4024;52.172;5.378;2022-08-14T05:18:56;12.50;;;9.77;;
7957;SDS011;4024;52.172;5.378;2022-08-14T05:21:22;12.30;;;9.77;;
7957;SDS011;4024;52.172;5.378;2022-08-14T05:23:48;11.00;;;9.90;;
7957;SDS011;4024;52.172;5.378;2022-08-14T05:26:15;13.17;;;10.77;;
7957;SDS011;4024;52.172;5.378;2022-08-14T05:28:45;14.00;;;10.80;;
7957;SDS011;4024;52.172;5.378;2022-08-14T05:31:12;11.73;;;10.10;;
7957;SDS011;4024;52.172;5.378;2022-08-14T05:33:41;11.80;;;10.53;;
7957;SDS011;4024;52.172;5.378;2022-08-14T05:36:09;11.13;;;9.97;;
7957;SDS011;4024;52.172;5.378;2022-08-14T05:38:36;11.43;;;10.23;;
7957;SDS011;4024;52.172;5.378;2022-08-14T05:41:15;10.30;;;9.33;;
7957;SDS011;4024;52.172;5.378;2022-08-14T05:43:42;14.03;;;10.40;;
7957;SDS011;4024;52.172;5.378;2022-08-14T05:46:10;11.83;;;10.50;;
7957;SDS011;4024;52.172;5.378;2022-08-14T05:48:37;12.40;;;10.40;;
7957;SDS011;4024;52.172;5.378;2022-08-14T05:51:03;12.67;;;10.73;;
7957;SDS011;4024;52.172;5.378;2022-08-14T05:53:29;12.00;;;10.80;;
7957;SDS011;4024;52.172;5.378;2022-08-14T05:55:58;13.73;;;11.40;;
7957;SDS011;4024;52.172;5.378;2022-08-14T05:58:24;11.60;;;10.40;;
7957;SDS011;4024;52.172;5.378;2022-08-14T06:00:50;13.60;;;10.90;;
7957;SDS011;4024;52.172;5.378;2022-08-14T06:03:18;13.70;;;11.27;;
7957;SDS011;4024;52.172;5.378;2022-08-14T06:05:46;13.40;;;10.97;;
7957;SDS011;4024;52.172;5.378;2022-08-14T06:08:13;12.73;;;10.33;;
7957;SDS011;4024;52.172;5.378;2022-08-14T06:10:44;12.03;;;10.53;;
7957;SDS011;4024;52.172;5.378;2022-08-14T06:13:11;12.53;;;11.23;;
7957;SDS011;4024;52.172;5.378;2022-08-14T06:15:41;12.70;;;11.40;;
7957;SDS011;4024;52.172;5.378;2022-08-14T06:18:07;11.73;;;10.53;;
7957;SDS011;4024;52.172;5.378;2022-08-14T06:20:33;12.20;;;11.10;;
7957;SDS011;4024;52.172;5.378;2022-08-14T06:23:02;12.47;;;11.27;;
7957;SDS011;4024;52.172;5.378;2022-08-14T06:25:29;12.23;;;10.93;;
7957;SDS011;4024;52.172;5.378;2022-08-14T06:27:55;11.43;;;10.43;;
7957;SDS011;4024;52.172;5.378;2022-08-14T06:30:22;13.20;;;11.73;;
7957;SDS011;4024;52.172;5.378;2022-08-14T06:32:54;12.13;;;10.93;;
7957;SDS011;4024;52.172;5.378;2022-08-14T06:35:20;15.17;;;11.47;;
7957;SDS011;4024;52.172;5.378;2022-08-14T06:37:51;12.03;;;10.87;;
7957;SDS011;4024;52.172;5.378;2022-08-14T06:40:34;14.40;;;11.17;;
7957;SDS011;4024;52.172;5.378;2022-08-14T06:43:06;12.50;;;11.20;;
7957;SDS011;4024;52.172;5.378;2022-08-14T06:45:34;14.23;;;11.00;;
7957;SDS011;4024;52.172;5.378;2022-08-14T06:48:00;12.47;;;11.13;;
7957;SDS011;4024;52.172;5.378;2022-08-14T06:50:27;13.47;;;11.20;;
7957;SDS011;4024;52.172;5.378;2022-08-14T06:52:55;15.17;;;11.90;;
7957;SDS011;4024;52.172;5.378;2022-08-14T06:55:21;12.30;;;11.07;;
7957;SDS011;4024;52.172;5.378;2022-08-14T06:57:47;12.17;;;10.93;;
7957;SDS011;4024;52.172;5.378;2022-08-14T07:00:15;12.67;;;11.37;;
7957;SDS011;4024;52.172;5.378;2022-08-14T07:02:43;12.47;;;11.17;;
7957;SDS011;4024;52.172;5.378;2022-08-14T07:05:28;15.80;;;11.57;;
7957;SDS011;4024;52.172;5.378;2022-08-14T07:08:16;12.03;;;10.20;;
7957;SDS011;4024;52.172;5.378;2022-08-14T07:10:44;12.17;;;11.00;;
7957;SDS011;4024;52.172;5.378;2022-08-14T07:13:11;11.97;;;10.83;;
7957;SDS011;4024;52.172;5.378;2022-08-14T07:15:38;12.80;;;11.53;;
7957;SDS011;4024;52.172;5.378;2022-08-14T07:18:05;12.40;;;11.17;;
7957;SDS011;4024;52.172;5.378;2022-08-14T07:20:32;11.87;;;10.67;;
7957;SDS011;4024;52.172;5.378;2022-08-14T07:22:59;12.50;;;10.97;;
7957;SDS011;4024;52.172;5.378;2022-08-14T07:25:26;15.60;;;11.97;;
7957;SDS011;4024;52.172;5.378;2022-08-14T07:27:52;12.13;;;10.93;;
7957;SDS011;4024;52.172;5.378;2022-08-14T07:30:18;12.93;;;10.67;;
7957;SDS011;4024;52.172;5.378;2022-08-14T07:32:44;11.43;;;10.10;;
7957;SDS011;4024;52.172;5.378;2022-08-14T07:35:10;12.37;;;11.07;;
7957;SDS011;4024;52.172;5.378;2022-08-14T07:37:36;14.87;;;10.67;;
7957;SDS011;4024;52.172;5.378;2022-08-14T07:40:02;14.50;;;11.27;;
7957;SDS011;4024;52.172;5.378;2022-08-14T07:42:29;11.97;;;10.20;;
7957;SDS011;4024;52.172;5.378;2022-08-14T07:44:56;12.13;;;10.93;;
7957;SDS011;4024;52.172;5.378;2022-08-14T07:47:23;11.73;;;9.97;;
7957;SDS011;4024;52.172;5.378;2022-08-14T07:49:53;17.87;;;10.97;;
7957;SDS011;4024;52.172;5.378;2022-08-14T07:52:48;12.87;;;9.97;;
7957;SDS011;4024;52.172;5.378;2022-08-14T07:55:14;12.27;;;9.73;;
7957;SDS011;4024;52.172;5.378;2022-08-14T07:57:42;11.67;;;10.57;;
7957;SDS011;4024;52.172;5.378;2022-08-14T08:00:11;12.07;;;10.97;;
7957;SDS011;4024;52.172;5.378;2022-08-14T08:02:41;10.60;;;9.47;;
7957;SDS011;4024;52.172;5.378;2022-08-14T08:05:09;10.50;;;9.47;;
7957;SDS011;4024;52.172;5.378;2022-08-14T08:07:36;10.03;;;8.87;;
7957;SDS011;4024;52.172;5.378;2022-08-14T08:10:13;11.67;;;9.17;;
7957;SDS011;4024;52.172;5.378;2022-08-14T08:13:00;9.97;;;8.40;;
7957;SDS011;4024;52.172;5.378;2022-08-14T08:15:35;10.73;;;9.03;;
7957;SDS011;4024;52.172;5.378;2022-08-14T08:18:08;9.57;;;8.67;;
7957;SDS011;4024;52.172;5.378;2022-08-14T08:20:35;11.10;;;9.57;;
7957;SDS011;4024;52.172;5.378;2022-08-14T08:23:05;9.40;;;8.50;;
7957;SDS011;4024;52.172;5.378;2022-08-14T08:25:33;8.73;;;7.93;;
7957;SDS011;4024;52.172;5.378;2022-08-14T08:28:02;9.27;;;8.47;;
7957;SDS011;4024;52.172;5.378;2022-08-14T08:30:31;9.33;;;8.47;;
7957;SDS011;4024;52.172;5.378;2022-08-14T08:32:59;8.27;;;7.57;;
7957;SDS011;4024;52.172;5.378;2022-08-14T08:35:27;10.43;;;9.50;;
7957;SDS011;4024;52.172;5.378;2022-08-14T08:38:00;8.93;;;8.00;;
7957;SDS011;4024;52.172;5.378;2022-08-14T08:43:00;8.40;;;7.67;;
7957;SDS011;4024;52.172;5.378;2022-08-14T08:45:27;9.40;;;8.50;;
7957;SDS011;4024;52.172;5.378;2022-08-14T08:47:53;9.03;;;8.13;;
7957;SDS011;4024;52.172;5.378;2022-08-14T08:50:31;9.37;;;7.60;;
7957;SDS011;4024;52.172;5.378;2022-08-14T08:53:03;8.10;;;7.40;;
7957;SDS011;4024;52.172;5.378;2022-08-14T08:58:02;8.50;;;7.70;;
7957;SDS011;4024;52.172;5.378;2022-08-14T09:00:33;10.53;;;8.27;;
7957;SDS011;4024;52.172;5.378;2022-08-14T09:03:05;8.60;;;7.70;;
7957;SDS011;4024;52.172;5.378;2022-08-14T09:05:32;8.80;;;7.90;;
7957;SDS011;4024;52.172;5.378;2022-08-14T09:08:13;9.40;;;7.97;;
7957;SDS011;4024;52.172;5.378;2022-08-14T09:10:43;8.87;;;7.97;;
7957;SDS011;4024;52.172;5.378;2022-08-14T09:13:09;8.87;;;8.07;;
7957;SDS011;4024;52.172;5.378;2022-08-14T09:15:39;8.50;;;7.80;;
7957;SDS011;4024;52.172;5.378;2022-08-14T09:18:06;9.00;;;7.90;;
7957;SDS011;4024;52.172;5.378;2022-08-14T09:20:33;8.57;;;7.73;;
7957;SDS011;4024;52.172;5.378;2022-08-14T09:23:02;11.13;;;7.93;;
7957;SDS011;4024;52.172;5.378;2022-08-14T09:25:28;8.93;;;7.60;;
7957;SDS011;4024;52.172;5.378;2022-08-14T09:27:54;8.07;;;7.33;;
7957;SDS011;4024;52.172;5.378;2022-08-14T09:30:20;8.67;;;7.73;;
7957;SDS011;4024;52.172;5.378;2022-08-14T09:35:16;8.63;;;7.83;;
7957;SDS011;4024;52.172;5.378;2022-08-14T09:43:41;7.97;;;7.03;;
7957;SDS011;4024;52.172;5.378;2022-08-14T09:46:13;8.97;;;7.67;;
7957;SDS011;4024;52.172;5.378;2022-08-14T09:48:39;9.20;;;8.00;;
7957;SDS011;4024;52.172;5.378;2022-08-14T09:51:05;9.93;;;7.93;;
7957;SDS011;4024;52.172;5.378;2022-08-14T09:53:36;7.97;;;7.27;;
7957;SDS011;4024;52.172;5.378;2022-08-14T09:56:12;7.87;;;7.17;;
7957;SDS011;4024;52.172;5.378;2022-08-14T09:58:39;8.80;;;7.77;;
7957;SDS011;4024;52.172;5.378;2022-08-14T10:01:13;7.57;;;6.80;;
7957;SDS011;4024;52.172;5.378;2022-08-14T10:03:50;8.50;;;7.47;;
7957;SDS011;4024;52.172;5.378;2022-08-14T10:06:19;10.57;;;7.80;;
7957;SDS011;4024;52.172;5.378;2022-08-14T10:08:50;8.90;;;7.77;;
7957;SDS011;4024;52.172;5.378;2022-08-14T10:11:30;7.63;;;6.93;;
7957;SDS011;4024;52.172;5.378;2022-08-14T10:14:11;7.70;;;6.90;;
7957;SDS011;4024;52.172;5.378;2022-08-14T10:16:43;10.17;;;6.23;;
7957;SDS011;4024;52.172;5.378;2022-08-14T10:19:15;7.03;;;6.43;;
7957;SDS011;4024;52.172;5.378;2022-08-14T10:21:44;6.73;;;6.13;;
7957;SDS011;4024;52.172;5.378;2022-08-14T10:24:38;7.57;;;6.40;;
7957;SDS011;4024;52.172;5.378;2022-08-14T10:27:12;7.10;;;6.37;;
7957;SDS011;4024;52.172;5.378;2022-08-14T10:29:42;6.33;;;5.83;;
7957;SDS011;4024;52.172;5.378;2022-08-14T10:32:12;7.80;;;6.67;;
7957;SDS011;4024;52.172;5.378;2022-08-14T10:34:38;7.80;;;6.00;;
7957;SDS011;4024;52.172;5.378;2022-08-14T10:37:08;6.70;;;6.10;;
7957;SDS011;4024;52.172;5.378;2022-08-14T10:39:38;7.07;;;6.10;;
7957;SDS011;4024;52.172;5.378;2022-08-14T10:42:05;9.23;;;6.50;;
7957;SDS011;4024;52.172;5.378;2022-08-14T10:44:34;6.80;;;6.20;;
7957;SDS011;4024;52.172;5.378;2022-08-14T10:47:03;6.97;;;6.37;;
7957;SDS011;4024;52.172;5.378;2022-08-14T10:49:34;6.87;;;6.27;;
7957;SDS011;4024;52.172;5.378;2022-08-14T10:57:16;6.40;;;5.67;;
7957;SDS011;4024;52.172;5.378;2022-08-14T11:02:19;6.70;;;6.10;;
7957;SDS011;4024;52.172;5.378;2022-08-14T11:05:03;6.10;;;5.60;;
7957;SDS011;4024;52.172;5.378;2022-08-14T11:07:37;6.20;;;5.60;;
7957;SDS011;4024;52.172;5.378;2022-08-14T11:10:12;8.20;;;6.03;;
7957;SDS011;4024;52.172;5.378;2022-08-14T11:12:46;6.13;;;5.53;;
7957;SDS011;4024;52.172;5.378;2022-08-14T11:15:14;6.00;;;5.40;;
7957;SDS011;4024;52.172;5.378;2022-08-14T11:17:47;6.40;;;5.70;;
7957;SDS011;4024;52.172;5.378;2022-08-14T11:20:16;6.57;;;5.97;;
7957;SDS011;4024;52.172;5.378;2022-08-14T11:22:44;6.30;;;5.63;;
7957;SDS011;4024;52.172;5.378;2022-08-14T11:25:14;6.23;;;5.60;;
7957;SDS011;4024;52.172;5.378;2022-08-14T11:27:44;5.80;;;5.30;;
7957;SDS011;4024;52.172;5.378;2022-08-14T11:30:12;7.13;;;5.97;;
7957;SDS011;4024;52.172;5.378;2022-08-14T11:32:41;5.83;;;5.33;;
7957;SDS011;4024;52.172;5.378;2022-08-14T11:35:12;5.07;;;4.63;;
7957;SDS011;4024;52.172;5.378;2022-08-14T11:37:53;6.17;;;4.87;;
7957;SDS011;4024;52.172;5.378;2022-08-14T11:40:22;5.13;;;4.63;;
7957;SDS011;4024;52.172;5.378;2022-08-14T11:42:50;6.53;;;4.47;;
7957;SDS011;4024;52.172;5.378;2022-08-14T11:45:24;5.50;;;4.93;;
7957;SDS011;4024;52.172;5.378;2022-08-14T11:47:52;5.33;;;4.90;;
7957;SDS011;4024;52.172;5.378;2022-08-14T11:50:21;5.60;;;5.10;;
7957;SDS011;4024;52.172;5.378;2022-08-14T11:52:49;4.67;;;4.27;;
7957;SDS011;4024;52.172;5.378;2022-08-14T11:55:19;5.67;;;4.93;;
7957;SDS011;4024;52.172;5.378;2022-08-14T11:57:45;5.70;;;5.20;;
7957;SDS011;4024;52.172;5.378;2022-08-14T12:00:13;8.60;;;4.90;;
7957;SDS011;4024;52.172;5.378;2022-08-14T12:02:53;5.90;;;5.30;;
7957;SDS011;4024;52.172;5.378;2022-08-14T12:05:30;5.70;;;5.20;;
7957;SDS011;4024;52.172;5.378;2022-08-14T12:08:04;6.07;;;5.40;;
7957;SDS011;4024;52.172;5.378;2022-08-14T12:10:36;5.33;;;4.90;;
7957;SDS011;4024;52.172;5.378;2022-08-14T12:13:16;5.13;;;4.73;;
7957;SDS011;4024;52.172;5.378;2022-08-14T12:15:44;5.60;;;5.10;;
7957;SDS011;4024;52.172;5.378;2022-08-14T12:18:13;5.40;;;4.90;;
7957;SDS011;4024;52.172;5.378;2022-08-14T12:20:40;6.87;;;5.63;;
7957;SDS011;4024;52.172;5.378;2022-08-14T12:23:21;6.67;;;4.90;;
7957;SDS011;4024;52.172;5.378;2022-08-14T12:25:48;6.77;;;4.90;;
7957;SDS011;4024;52.172;5.378;2022-08-14T12:28:15;5.77;;;5.20;;
7957;SDS011;4024;52.172;5.378;2022-08-14T12:30:41;5.60;;;5.10;;
7957;SDS011;4024;52.172;5.378;2022-08-14T12:33:19;6.13;;;5.20;;
7957;SDS011;4024;52.172;5.378;2022-08-14T12:35:50;5.17;;;4.57;;
7957;SDS011;4024;52.172;5.378;2022-08-14T12:38:17;5.47;;;5.07;;
7957;SDS011;4024;52.172;5.378;2022-08-14T12:40:50;7.30;;;5.37;;
7957;SDS011;4024;52.172;5.378;2022-08-14T12:43:18;6.33;;;5.17;;
7957;SDS011;4024;52.172;5.378;2022-08-14T12:45:49;6.23;;;4.93;;
7957;SDS011;4024;52.172;5.378;2022-08-14T12:48:21;5.33;;;4.70;;
7957;SDS011;4024;52.172;5.378;2022-08-14T12:50:48;7.80;;;5.10;;
7957;SDS011;4024;52.172;5.378;2022-08-14T12:53:18;5.80;;;5.27;;
7957;SDS011;4024;52.172;5.378;2022-08-14T12:55:44;5.17;;;4.70;;
7957;SDS011;4024;52.172;5.378;2022-08-14T12:58:21;5.30;;;4.90;;
7957;SDS011;4024;52.172;5.378;2022-08-14T13:00:52;4.77;;;4.33;;
7957;SDS011;4024;52.172;5.378;2022-08-14T13:03:24;5.70;;;5.20;;
7957;SDS011;4024;52.172;5.378;2022-08-14T13:05:52;6.37;;;5.00;;
7957;SDS011;4024;52.172;5.378;2022-08-14T13:08:18;5.80;;;5.03;;
7957;SDS011;4024;52.172;5.378;2022-08-14T13:10:46;5.27;;;4.87;;
7957;SDS011;4024;52.172;5.378;2022-08-14T13:13:14;5.00;;;4.57;;
7957;SDS011;4024;52.172;5.378;2022-08-14T13:15:42;5.57;;;4.83;;
7957;SDS011;4024;52.172;5.378;2022-08-14T13:18:13;5.50;;;5.00;;
7957;SDS011;4024;52.172;5.378;2022-08-14T13:20:40;5.70;;;5.20;;
7957;SDS011;4024;52.172;5.378;2022-08-14T13:23:06;5.40;;;5.00;;
7957;SDS011;4024;52.172;5.378;2022-08-14T13:25:34;6.03;;;5.17;;
7957;SDS011;4024;52.172;5.378;2022-08-14T13:28:04;5.60;;;5.03;;
7957;SDS011;4024;52.172;5.378;2022-08-14T13:30:30;5.03;;;4.63;;
7957;SDS011;4024;52.172;5.378;2022-08-14T13:32:56;7.43;;;5.07;;
7957;SDS011;4024;52.172;5.378;2022-08-14T13:35:22;6.00;;;5.50;;
7957;SDS011;4024;52.172;5.378;2022-08-14T13:37:49;5.73;;;5.23;;
7957;SDS011;4024;52.172;5.378;2022-08-14T13:40:16;5.80;;;5.13;;
7957;SDS011;4024;52.172;5.378;2022-08-14T13:42:45;5.60;;;5.10;;
7957;SDS011;4024;52.172;5.378;2022-08-14T13:45:12;5.70;;;5.10;;
7957;SDS011;4024;52.172;5.378;2022-08-14T13:47:41;6.57;;;5.70;;
7957;SDS011;4024;52.172;5.378;2022-08-14T13:50:09;6.27;;;5.37;;
7957;SDS011;4024;52.172;5.378;2022-08-14T13:52:39;5.30;;;4.90;;
7957;SDS011;4024;52.172;5.378;2022-08-14T13:55:07;6.40;;;5.60;;
7957;SDS011;4024;52.172;5.378;2022-08-14T13:57:33;6.33;;;5.10;;
7957;SDS011;4024;52.172;5.378;2022-08-14T14:00:04;4.77;;;4.40;;
7957;SDS011;4024;52.172;5.378;2022-08-14T14:02:36;5.63;;;5.13;;
7957;SDS011;4024;52.172;5.378;2022-08-14T14:05:04;5.80;;;4.80;;
7957;SDS011;4024;52.172;5.378;2022-08-14T14:07:32;5.23;;;4.83;;
7957;SDS011;4024;52.172;5.378;2022-08-14T14:10:00;6.07;;;5.40;;
7957;SDS011;4024;52.172;5.378;2022-08-14T14:12:32;5.27;;;4.87;;
7957;SDS011;4024;52.172;5.378;2022-08-14T14:15:02;6.23;;;5.20;;
7957;SDS011;4024;52.172;5.378;2022-08-14T14:17:30;6.03;;;5.37;;
7957;SDS011;4024;52.172;5.378;2022-08-14T14:19:57;5.50;;;5.00;;
7957;SDS011;4024;52.172;5.378;2022-08-14T14:22:23;5.43;;;5.03;;
7957;SDS011;4024;52.172;5.378;2022-08-14T14:24:50;5.60;;;5.10;;
7957;SDS011;4024;52.172;5.378;2022-08-14T14:27:16;5.53;;;5.03;;
7957;SDS011;4024;52.172;5.378;2022-08-14T14:29:44;5.97;;;5.37;;
7957;SDS011;4024;52.172;5.378;2022-08-14T14:32:12;5.97;;;5.47;;
7957;SDS011;4024;52.172;5.378;2022-08-14T14:34:40;6.43;;;5.83;;
7957;SDS011;4024;52.172;5.378;2022-08-14T14:37:06;5.60;;;5.10;;
7957;SDS011;4024;52.172;5.378;2022-08-14T14:39:36;6.33;;;4.87;;
7957;SDS011;4024;52.172;5.378;2022-08-14T14:42:02;5.57;;;4.80;;
7957;SDS011;4024;52.172;5.378;2022-08-14T14:44:33;6.30;;;5.70;;
7957;SDS011;4024;52.172;5.378;2022-08-14T14:47:05;5.60;;;5.10;;
7957;SDS011;4024;52.172;5.378;2022-08-14T14:49:35;5.70;;;5.20;;
7957;SDS011;4024;52.172;5.378;2022-08-14T14:52:03;6.10;;;5.50;;
7957;SDS011;4024;52.172;5.378;2022-08-14T14:54:30;7.60;;;5.73;;
7957;SDS011;4024;52.172;5.378;2022-08-14T14:57:00;5.70;;;5.17;;
7957;SDS011;4024;52.172;5.378;2022-08-14T14:59:27;7.43;;;5.30;;
7957;SDS011;4024;52.172;5.378;2022-08-14T15:01:59;5.60;;;5.07;;
7957;SDS011;4024;52.172;5.378;2022-08-14T15:04:30;5.80;;;5.30;;
7957;SDS011;4024;52.172;5.378;2022-08-14T15:06:57;5.67;;;5.17;;
7957;SDS011;4024;52.172;5.378;2022-08-14T15:09:23;5.53;;;5.03;;
7957;SDS011;4024;52.172;5.378;2022-08-14T15:11:48;5.73;;;5.27;;
7957;SDS011;4024;52.172;5.378;2022-08-14T15:14:14;5.43;;;4.93;;
7957;SDS011;4024;52.172;5.378;2022-08-14T15:16:40;5.93;;;5.33;;
7957;SDS011;4024;52.172;5.378;2022-08-14T15:19:05;5.37;;;4.90;;
7957;SDS011;4024;52.172;5.378;2022-08-14T15:21:33;6.87;;;5.00;;
7957;SDS011;4024;52.172;5.378;2022-08-14T15:24:00;5.17;;;4.73;;
7957;SDS011;4024;52.172;5.378;2022-08-14T15:26:26;5.33;;;4.93;;
7957;SDS011;4024;52.172;5.378;2022-08-14T15:28:51;6.87;;;4.80;;
7957;SDS011;4024;52.172;5.378;2022-08-14T15:31:17;5.27;;;4.87;;
7957;SDS011;4024;52.172;5.378;2022-08-14T15:33:43;5.70;;;5.20;;
7957;SDS011;4024;52.172;5.378;2022-08-14T15:36:27;5.80;;;5.30;;
7957;SDS011;4024;52.172;5.378;2022-08-14T15:38:54;6.00;;;5.53;;
7957;SDS011;4024;52.172;5.378;2022-08-14T15:41:21;5.57;;;4.97;;
7957;SDS011;4024;52.172;5.378;2022-08-14T15:43:46;5.23;;;4.77;;